WLC weather

Walcha Airport
New South Wales, Australia

Public forecast

Using degrees Celsius for public forecast. Weather courtesy of forecast.io.

METAR (pilot weather report)

Closest report is Tamworth Airport, 37.4 nm (69.2 km) W. Retrieved 2019/04/19 14:30 UTC (22 minutes ago):

YSTW 191430Z AUTO 10012KT 9999 // OVC090 21/12 Q1025 RF00.0/000.0

TAF (pilot weather forecast)

Closest forecast is Tamworth Airport, 37.4 nm (69.2 km) W. Retrieved 2019/04/19 12:36 UTC (2 hours ago):

TAF TAF YSTW 191042Z 1912/2006 12010KT CAVOK FM191600 12010KT 9999 FEW010 FM200200 09012KT 9999 SCT050